Marin Sunshine — WDE5919 — position and weather

sailwx.info

Track history (hours):
 
Tides and Currents Weather Stations Pressure Air Temp Water Temp Dewpoint Dewpoint Depression Visibility Wind Speed Wind Dir Waves Ship Positions

Marin Sunshine

Owner: Marine Express, alameda, CA. More information available from US FCC via Universal Licensing System and Coast Guard Vessel Documentation Center.

Last reported at 2016-May-27 17:33 UTC. Time now 2016-May-27 18:11 UTC.
Position N 37°57' W 121°22'.

MMSI: 367373280.

Date/timePositionNaut miles runAvg speedWind from/ knotsBaromVisibWave heightAir tempDewpointWater temp
2016-May-27 17:33N 37°57' W 121°22'0 0.0
2016-May-27 16:33N 37°57' W 121°22'0 0.0
2016-May-27 15:33N 37°57' W 121°22'0 0.0
2016-May-27 14:33N 37°57' W 121°22'0 0.0
2016-May-27 13:33N 37°57' W 121°22'1 1.2
2016-May-27 12:33N 37°57' W 121°20'1 1.2
2016-May-27 11:33N 37°57' W 121°22'0 0.0
2016-May-26 07:33N 37°57' W 121°21'1 0.9
2016-May-26 06:33N 37°57' W 121°20'1 0.9
2016-May-26 05:33N 37°57' W 121°21'0 0.0
2016-May-24 06:12N 37°57' W 121°21'1 1.7
2016-May-24 05:33N 37°57' W 121°20'1 0.5
2016-May-24 04:33N 37°57' W 121°19'1 0.6
2016-May-24 03:34N 37°57' W 121°20'0 0.2
2016-May-24 02:33N 37°57' W 121°20'2 2.2
2016-May-24 01:33N 37°58' W 121°23'1 1.3
2016-May-24 00:34N 37°57' W 121°21'  
2016-May-19 18:07N 37°57' W 121°21'0 0.0
2016-May-19 17:34N 37°57' W 121°21'0 0.0
2016-May-19 16:34N 37°57' W 121°21'1 1.0
2016-May-19 15:34N 37°57' W 121°20'0 0.1
2016-May-19 14:34N 37°57' W 121°20'1 0.9
2016-May-19 13:34N 37°57' W 121°21'  
Track history (hours):
 
Tides and Currents Weather Stations Pressure Air Temp Water Temp Dewpoint Dewpoint Depression Visibility Wind Speed Wind Dir Waves Ship Positions

Marin Sunshine

Owner: Marine Express, alameda, CA. More information available from US FCC via Universal Licensing System and Coast Guard Vessel Documentation Center.

Last reported at 2016-May-27 17:33 UTC. Time now 2016-May-27 18:11 UTC.
Position N 37°57' W 121°22'.

MMSI: 367373280.

Date/timePositionNaut miles runAvg speedWind from/ knotsBaromVisibWave heightAir tempDewpointWater temp
2016-May-27 17:33N 37°57' W 121°22'0 0.0
2016-May-27 16:33N 37°57' W 121°22'0 0.0
2016-May-27 15:33N 37°57' W 121°22'0 0.0
2016-May-27 14:33N 37°57' W 121°22'0 0.0
2016-May-27 13:33N 37°57' W 121°22'1 1.2
2016-May-27 12:33N 37°57' W 121°20'1 1.2
2016-May-27 11:33N 37°57' W 121°22'0 0.0
2016-May-26 07:33N 37°57' W 121°21'1 0.9
2016-May-26 06:33N 37°57' W 121°20'1 0.9
2016-May-26 05:33N 37°57' W 121°21'0 0.0
2016-May-24 06:12N 37°57' W 121°21'1 1.7
2016-May-24 05:33N 37°57' W 121°20'1 0.5
2016-May-24 04:33N 37°57' W 121°19'1 0.6
2016-May-24 03:34N 37°57' W 121°20'0 0.2
2016-May-24 02:33N 37°57' W 121°20'2 2.2
2016-May-24 01:33N 37°58' W 121°23'1 1.3
2016-May-24 00:34N 37°57' W 121°21'  
2016-May-19 18:07N 37°57' W 121°21'0 0.0
2016-May-19 17:34N 37°57' W 121°21'0 0.0
2016-May-19 16:34N 37°57' W 121°21'1 1.0
2016-May-19 15:34N 37°57' W 121°20'0 0.1
2016-May-19 14:34N 37°57' W 121°20'1 0.9
2016-May-19 13:34N 37°57' W 121°21'  

Dump ship's entire track history